< < Back
Terminal Aerodrome Forecast


Current Version              Previous Versions:   1  2  3  4  5  6  7  8  9  

Terminal Aerodrome Forecast

670
FTUS42 KFFC 241438 AAB
TAFAHN
TAF AMD
KAHN 241438Z 2415/2512 15007KT P6SM VCSH SCT025 BKN040
      TEMPO 2416/2420 VRB10G20KT 5SM SHRA BKN030
     FM242100 13007KT P6SM SCT050 SCT100
     FM250100 VRB03KT P6SM FEW060 SCT150
     FM250800 00000KT 4SM BR FEW250=

Latest METAR

662
SAUS70 KWBC 241700 RRX
MTRAHN
METAR KAHN 241751Z VRB06KT 1 1/2SM +RA BR FEW022 BKN033 OVC060 23/23
A3029 RMK AO2 RAB19 SLP250 P0005 60005 T02330233 10289 20233
55001


USA.gov is the U.S. government's official web portal to all federal, state and local government web resources and services.